Wind from 090 at 0 knots gusting 5

Air temperature 25.0° C
Dewpoint 22.9° C

Last reported at 2014-Apr-24 12:41 UTC.
Time now 2014-Apr-24 13:34 UTC

Location: N 18°12' W 066°01'.
View on Google Maps.

See reports from other nearby stations

Tides Stations Pressure Air Temp Water Temp Dewpoint Dewpoint depression Visibility Wind Speed Wind Dir Waves Ship positions

  
sailing weather and tide predictions

CW8822 Caguas PR US weather

date/time (UTC)wind fromknots sea level pressurealtimeterstation pressurevisibilityair tempwater tempwave heightnotes
2014-Apr-24 12:41 090 0 gusting 5 25.0
2014-Apr-24 12:26 101 0 gusting 4 24.4
2014-Apr-24 12:11 108 1 gusting 5 24.4
2014-Apr-24 11:56 096 0 gusting 4 24.4
2014-Apr-24 11:41 023 23.3
2014-Apr-24 11:26 015 1 gusting 3 22.8
2014-Apr-24 11:11 213 22.2
2014-Apr-24 10:56 135 22.2
2014-Apr-24 10:41 134 21.7
2014-Apr-24 10:26 166 21.7
2014-Apr-24 10:11 165 21.7
2014-Apr-24 09:56 162 22.2
2014-Apr-24 09:41 160 22.2
2014-Apr-24 09:26 160 22.2
2014-Apr-24 09:11 160 22.8
2014-Apr-24 08:56 160 22.8
2014-Apr-24 08:41 160 0 gusting 4 22.8
2014-Apr-24 08:26 179 0 gusting 4 22.2
2014-Apr-24 08:11 179 22.2
2014-Apr-24 07:56 179 22.2
2014-Apr-24 07:41 179 22.2
2014-Apr-24 07:26 179 22.2
2014-Apr-24 07:11 179 22.8
2014-Apr-24 06:56 179 1 gusting 4 22.8
2014-Apr-24 06:41 179 22.2
2014-Apr-24 06:26 179 22.8
2014-Apr-24 06:11 179 22.8
2014-Apr-24 05:56 179 22.8
2014-Apr-24 05:41 179 22.8
2014-Apr-24 05:26 179 0 gusting 4 23.3
2014-Apr-24 05:11 180 1 gusting 3 23.3
2014-Apr-24 04:56 263 23.3
2014-Apr-24 04:41 209 0 gusting 4 23.3
2014-Apr-24 04:26 148 23.3
2014-Apr-24 04:11 133 23.3
2014-Apr-24 03:56 133 0 gusting 4 23.3
2014-Apr-24 03:41 136 2 gusting 4 23.3
2014-Apr-24 03:26 134 0 gusting 4 23.9
2014-Apr-24 03:11 151 23.9
2014-Apr-24 02:56 155 23.9
2014-Apr-24 02:41 155 0 gusting 3 23.9
2014-Apr-24 02:26 132 0 gusting 2 23.9
2014-Apr-24 02:11 132 0 gusting 3 23.9
2014-Apr-24 01:41 132 23.9
2014-Apr-24 01:26 169 0 gusting 3 23.9
2014-Apr-24 01:11 169 0 gusting 2 23.9
2014-Apr-24 00:56 169 23.9
2014-Apr-24 00:41 169 23.9
2014-Apr-24 00:26 169 23.9
2014-Apr-24 00:10 169 24.4
2014-Apr-23 23:55 171 24.4
2014-Apr-23 23:40 171 24.4
2014-Apr-23 23:25 141 1 gusting 6 25.0
2014-Apr-23 23:10 143 3 gusting 9 25.0
2014-Apr-23 22:55 112 6 gusting 10 25.0
2014-Apr-23 22:40 123 4 gusting 11 25.6
2014-Apr-23 22:25 131 1 gusting 7 25.6
2014-Apr-23 22:10 103 2 gusting 8 26.1
2014-Apr-23 21:55 120 2 gusting 6 26.1
2014-Apr-23 21:40 140 2 gusting 12 26.7
2014-Apr-23 21:25 137 4 gusting 11 26.7
2014-Apr-23 21:10 140 1 gusting 7 27.2
2014-Apr-23 20:55 117 1 gusting 9 27.2
2014-Apr-23 20:40 129 3 gusting 9 27.2
2014-Apr-23 20:25 123 3 gusting 8 27.8
2014-Apr-23 20:10 165 0 gusting 6 28.3
2014-Apr-23 19:55 141 2 gusting 8 28.3
2014-Apr-23 19:40 130 3 gusting 13 28.9
2014-Apr-23 19:10 142 3 gusting 10 29.4
2014-Apr-23 18:55 103 2 gusting 11 28.9
2014-Apr-23 18:40 168 1 gusting 9 28.9
2014-Apr-23 18:25 215 3 gusting 10 30.0
2014-Apr-23 18:10 175 4 gusting 11 29.4
2014-Apr-23 17:55 132 3 gusting 11 28.9
2014-Apr-23 17:40 146 1 gusting 7 29.4
2014-Apr-23 17:25 148 5 gusting 11 29.4
2014-Apr-23 17:10 109 3 gusting 6 30.0
2014-Apr-23 16:55 134 2 gusting 8 30.0
2014-Apr-23 16:40 106 0 gusting 7 29.4
2014-Apr-23 16:24 117 2 gusting 7 30.0
2014-Apr-23 16:09 149 4 gusting 11 29.4
2014-Apr-23 15:54 133 4 gusting 9 29.4
2014-Apr-23 15:39 175 2 gusting 8 29.4
2014-Apr-23 15:24 111 1 gusting 6 29.4
2014-Apr-23 15:09 136 3 gusting 6 28.9
2014-Apr-23 14:54 133 4 gusting 9 28.3
2014-Apr-23 14:39 155 3 gusting 12 27.8
2014-Apr-23 14:24 213 3 gusting 10 27.8
2014-Apr-23 14:09 124 3 gusting 11 27.2
2014-Apr-23 13:54 178 2 gusting 9 26.7
2014-Apr-23 13:39 155 27.8
2014-Apr-23 13:24 124 0 gusting 7 27.2
2014-Apr-23 13:09 096 1 gusting 5 27.2
2014-Apr-23 12:54 111 0 gusting 4 26.7
2014-Apr-23 12:39 108 1 gusting 6 26.1
2014-Apr-23 12:24 117 2 gusting 7 26.1
2014-Apr-23 12:09 103 0 gusting 2 25.6
2014-Apr-23 11:54 110 25.0
2014-Apr-23 11:39 047 25.0
2014-Apr-23 11:24 088 23.9
2014-Apr-23 11:09 088 23.9
2014-Apr-23 10:54 167 23.3
2014-Apr-23 10:39 156 0 gusting 3 22.8
2014-Apr-23 10:24 150 2 gusting 4 22.8
2014-Apr-23 10:09 136 0 gusting 3 22.8
2014-Apr-23 09:54 136 22.2
2014-Apr-23 09:39 136 21.7
2014-Apr-23 09:24 136 21.7
2014-Apr-23 09:09 136 21.7
2014-Apr-23 08:54 136 21.7
2014-Apr-23 08:39 136 21.7
2014-Apr-23 08:24 136 21.7
2014-Apr-23 08:09 136 21.7
2014-Apr-23 07:54 136 22.2
2014-Apr-23 07:39 137 0 gusting 3 22.8
2014-Apr-23 07:24 105 22.2
2014-Apr-23 07:09 136 1 gusting 4 21.7
2014-Apr-23 06:54 133 21.7
2014-Apr-23 06:39 133 0 gusting 3 22.2
2014-Apr-23 06:24 133 22.2
2014-Apr-23 06:09 138 22.2
2014-Apr-23 05:54 092 0 gusting 4 22.2
2014-Apr-23 05:39 092 22.2
2014-Apr-23 05:24 092 22.2
2014-Apr-23 05:09 092 22.2
2014-Apr-23 04:54 092 22.8
2014-Apr-23 04:39 092 22.8
2014-Apr-23 04:24 092 22.2
2014-Apr-23 04:09 092 1 gusting 4 22.8
2014-Apr-23 03:54 218 2 gusting 4 22.8
2014-Apr-23 03:39 218 0 gusting 4 22.8
2014-Apr-23 03:24 158 1 gusting 4 23.3
2014-Apr-23 03:09 157 23.3
2014-Apr-23 02:54 157 23.3
2014-Apr-23 02:39 157 23.3
2014-Apr-23 02:24 157 23.3
2014-Apr-23 02:09 157 0 gusting 3 23.3
2014-Apr-23 01:54 157 23.3
2014-Apr-23 01:39 157 23.3
2014-Apr-23 01:24 157 23.9
2014-Apr-23 01:09 157 1 gusting 2 23.9
2014-Apr-23 00:54 157 23.9
2014-Apr-23 00:39 157 23.9
2014-Apr-23 00:24 155 1 gusting 5 23.9
2014-Apr-23 00:08 103 2 gusting 6 23.9
2014-Apr-22 23:53 188 2 gusting 6 23.9
2014-Apr-22 23:38 166 3 gusting 7 23.9
2014-Apr-22 23:23 154 0 gusting 6 24.4
2014-Apr-22 23:08 140 2 gusting 7 24.4
2014-Apr-22 22:53 150 0 gusting 7 25.0
2014-Apr-22 22:38 134 2 gusting 9 25.6
2014-Apr-22 22:23 148 2 gusting 6 25.6
2014-Apr-22 22:08 169 0 gusting 6 26.1
2014-Apr-22 21:53 163 1 gusting 6 26.7
2014-Apr-22 21:38 149 0 gusting 7 26.7
2014-Apr-22 21:23 113 3 gusting 10 27.2
2014-Apr-22 21:08 102 4 gusting 13 27.2
2014-Apr-22 20:53 096 3 gusting 6 27.8
2014-Apr-22 20:38 109 4 gusting 11 27.8
2014-Apr-22 20:23 118 3 gusting 9 28.3
2014-Apr-22 20:08 130 4 gusting 10 28.3
2014-Apr-22 19:53 132 0 gusting 9 28.9
2014-Apr-22 19:38 109 2 gusting 10 28.9
2014-Apr-22 19:23 140 0 gusting 10 28.9
2014-Apr-22 19:08 095 3 gusting 13 28.9
2014-Apr-22 18:53 173 2 gusting 9 28.9
2014-Apr-22 18:38 123 3 gusting 12 28.9
2014-Apr-22 18:22 103 3 gusting 9 29.4
2014-Apr-22 18:07 175 7 gusting 13 28.9
2014-Apr-22 17:52 171 3 gusting 10 29.4
2014-Apr-22 17:37 129 1 gusting 12 28.9
2014-Apr-22 17:22 168 2 gusting 11 28.9
2014-Apr-22 17:07 111 5 gusting 11 28.9
2014-Apr-22 16:52 194 2 gusting 11 28.9
2014-Apr-22 16:37 121 4 gusting 11 28.9
2014-Apr-22 16:22 140 3 gusting 10 29.4
2014-Apr-22 16:07 153 2 gusting 10 28.9
2014-Apr-22 15:52 157 3 gusting 9 28.9
2014-Apr-22 15:37 161 2 gusting 12 28.9
2014-Apr-22 15:22 107 2 gusting 9 28.9
2014-Apr-22 15:07 131 3 gusting 9 28.9
2014-Apr-22 14:52 098 2 gusting 7 28.3
2014-Apr-22 14:37 121 4 gusting 10 27.8
2014-Apr-22 14:22 215 0 gusting 9 28.3
2014-Apr-22 14:07 118 3 gusting 10 27.2
2014-Apr-22 13:52 098 27.2
2014-Apr-22 13:37 167 2 gusting 9 26.7
2014-Apr-22 13:22 117 3 gusting 8 26.7
2014-Apr-22 13:07 174 2 gusting 7 26.7